createdAt,value
2023-06-03T00:00:16.314Z,2.97
2023-06-03T00:02:45.731Z,3.30
2023-06-03T00:05:12.642Z,3.28
2023-06-03T00:07:39.302Z,3.42
2023-06-03T00:14:59.737Z,3.10
2023-06-03T00:17:29.012Z,3.15
2023-06-03T00:19:55.971Z,3.60
2023-06-03T00:22:23.151Z,3.22
2023-06-03T00:24:50.409Z,3.22
2023-06-03T00:27:17.531Z,3.10
2023-06-03T00:29:44.857Z,3.53
2023-06-03T00:32:11.983Z,3.30
2023-06-03T00:34:39.149Z,3.10
2023-06-03T00:37:05.919Z,3.28
2023-06-03T00:39:32.565Z,3.38
2023-06-03T00:44:27.304Z,2.90
2023-06-03T00:46:54.177Z,3.50
2023-06-03T00:49:21.392Z,3.50
2023-06-03T00:51:48.849Z,3.55
2023-06-03T00:54:17.274Z,3.50
2023-06-03T00:56:46.142Z,3.42
2023-06-03T00:59:16.480Z,3.30
2023-06-03T01:01:46.862Z,3.63
2023-06-03T01:04:19.875Z,3.50
2023-06-03T01:07:21.857Z,3.38
2023-06-03T01:09:57.827Z,3.28
2023-06-03T01:12:51.758Z,3.20
2023-06-03T01:15:27.546Z,4.78
2023-06-03T01:17:59.414Z,3.47
2023-06-03T01:20:29.725Z,3.38
2023-06-03T01:23:21.821Z,3.70
2023-06-03T01:25:52.325Z,3.38
2023-06-03T01:28:21.811Z,3.20
2023-06-03T01:30:49.530Z,3.22
2023-06-03T01:33:18.305Z,3.10
2023-06-03T01:35:46.419Z,3.78
2023-06-03T01:38:13.506Z,4.50
2023-06-03T01:40:41.307Z,3.53
2023-06-03T01:43:09.874Z,3.58
2023-06-03T01:45:36.776Z,3.47
2023-06-03T01:48:03.991Z,3.30
2023-06-03T01:50:31.072Z,3.28
2023-06-03T01:52:58.223Z,3.85
2023-06-03T01:55:25.057Z,3.70
2023-06-03T02:00:18.809Z,3.53
2023-06-03T02:02:46.003Z,3.50
2023-06-03T02:05:12.857Z,3.55
2023-06-03T02:10:06.830Z,3.40
2023-06-03T02:12:33.877Z,3.45
2023-06-03T02:15:01.082Z,3.70
2023-06-03T02:17:28.519Z,3.70
2023-06-03T02:19:56.454Z,3.30
2023-06-03T02:22:27.529Z,3.17
2023-06-03T02:24:58.986Z,3.50
2023-06-03T02:27:29.404Z,3.45
2023-06-03T02:29:56.198Z,3.45
2023-06-03T02:32:23.107Z,3.30
2023-06-03T02:34:51.714Z,3.42
2023-06-03T02:37:18.765Z,3.80
2023-06-03T02:39:46.084Z,3.55
2023-06-03T02:42:13.001Z,3.30
2023-06-03T02:44:39.962Z,3.50
2023-06-03T02:47:07.366Z,3.50
2023-06-03T02:49:34.464Z,3.42
2023-06-03T02:52:01.169Z,3.65
2023-06-03T02:56:55.847Z,3.38
2023-06-03T02:59:22.623Z,4.05
2023-06-03T03:04:18.998Z,3.65
2023-06-03T03:06:45.763Z,3.90
2023-06-03T03:09:12.583Z,3.50
2023-06-03T03:14:07.465Z,3.60
2023-06-03T03:16:34.798Z,3.47
2023-06-03T03:19:01.801Z,3.90
2023-06-03T03:21:28.752Z,3.45
2023-06-03T03:23:55.679Z,3.25
2023-06-03T03:26:23.254Z,3.88
2023-06-03T03:28:50.545Z,3.88
2023-06-03T03:31:17.862Z,3.40
2023-06-03T03:33:44.741Z,3.58
2023-06-03T03:38:40.299Z,3.53
2023-06-03T03:41:07.819Z,3.63
2023-06-03T03:43:36.103Z,3.40
2023-06-03T03:46:03.121Z,3.42
2023-06-03T03:48:31.790Z,3.67
2023-06-03T03:50:59.237Z,3.42
2023-06-03T03:53:32.777Z,3.75
2023-06-03T03:56:00.777Z,3.65
2023-06-03T03:58:28.161Z,3.35
2023-06-03T04:01:01.866Z,3.85
2023-06-03T04:03:31.661Z,3.65
2023-06-03T04:05:58.780Z,3.50
2023-06-03T04:08:29.463Z,4.07
2023-06-03T04:10:59.868Z,3.47
2023-06-03T04:13:26.785Z,3.50
2023-06-03T04:15:53.791Z,3.10
2023-06-03T04:18:21.336Z,3.13
2023-06-03T04:20:50.181Z,3.67
2023-06-03T04:23:21.423Z,3.95
2023-06-03T04:25:50.859Z,5.35
2023-06-03T04:28:17.907Z,4.10
2023-06-03T04:30:45.437Z,3.78
2023-06-03T04:33:12.509Z,3.20
2023-06-03T04:35:39.945Z,3.60
2023-06-03T04:38:07.560Z,3.22
2023-06-03T04:40:35.229Z,3.58
2023-06-03T04:43:05.102Z,4.20
2023-06-03T04:45:33.492Z,3.67
2023-06-03T04:48:03.695Z,3.30
2023-06-03T04:50:37.186Z,3.58
2023-06-03T04:53:04.384Z,3.85
2023-06-03T04:55:33.067Z,3.38
2023-06-03T04:58:02.996Z,3.10
2023-06-03T05:00:30.603Z,3.10
2023-06-03T05:02:58.368Z,3.28
2023-06-03T05:05:27.374Z,2.75
2023-06-03T05:07:56.750Z,2.65
2023-06-03T05:10:23.477Z,2.80
2023-06-03T05:12:50.567Z,2.92
2023-06-03T05:15:18.859Z,3.05
2023-06-03T05:17:46.179Z,2.97
2023-06-03T05:20:13.383Z,3.10
2023-06-03T05:22:40.419Z,2.63
2023-06-03T05:25:07.942Z,2.65
2023-06-03T05:27:34.902Z,2.85
2023-06-03T05:30:02.278Z,2.55
2023-06-03T05:32:29.401Z,2.67
2023-06-03T05:34:56.631Z,2.80
2023-06-03T05:37:23.693Z,2.58
2023-06-03T05:39:50.723Z,2.05
2023-06-03T05:42:17.317Z,2.97
2023-06-03T05:47:10.726Z,2.50
2023-06-03T05:49:37.665Z,2.65
2023-06-03T05:52:04.887Z,2.30
2023-06-03T05:54:31.991Z,2.28
2023-06-03T05:56:59.719Z,2.25
2023-06-03T05:59:27.336Z,2.00
2023-06-03T06:01:54.248Z,2.13
2023-06-03T06:04:25.955Z,2.00
2023-06-03T06:06:53.231Z,2.17
2023-06-03T06:09:20.436Z,1.77
2023-06-03T06:11:47.372Z,1.70
2023-06-03T06:14:14.369Z,1.95
2023-06-03T06:16:41.829Z,1.80
2023-06-03T06:19:08.891Z,2.10
2023-06-03T06:21:35.772Z,1.50
2023-06-03T06:24:03.796Z,2.08
2023-06-03T06:26:31.270Z,1.95
2023-06-03T06:28:58.221Z,1.90
2023-06-03T06:31:25.451Z,2.35
2023-06-03T06:33:52.902Z,1.67
2023-06-03T06:36:43.757Z,1.77
2023-06-03T06:39:37.151Z,1.80
2023-06-03T06:42:14.547Z,2.97
2023-06-03T06:44:50.104Z,1.67
2023-06-03T06:47:24.931Z,1.90
2023-06-03T06:49:53.170Z,2.28
2023-06-03T06:52:20.823Z,1.70
2023-06-03T06:54:47.940Z,1.73
2023-06-03T06:57:25.286Z,1.92
2023-06-03T06:59:56.731Z,1.45
2023-06-03T07:02:23.999Z,1.77
2023-06-03T07:04:51.587Z,1.75
2023-06-03T07:07:19.800Z,1.60
2023-06-03T07:09:48.172Z,1.90
2023-06-03T07:12:18.137Z,1.42
2023-06-03T07:14:45.079Z,1.70
2023-06-03T07:17:12.085Z,1.88
2023-06-03T07:19:39.517Z,1.70
2023-06-03T07:22:07.656Z,1.75
2023-06-03T07:24:41.234Z,1.95
2023-06-03T07:27:09.526Z,2.00
2023-06-03T07:29:39.430Z,1.50
2023-06-03T07:32:10.173Z,1.85
2023-06-03T07:34:38.202Z,1.98
2023-06-03T07:37:12.946Z,1.83
2023-06-03T07:39:40.141Z,1.80
2023-06-03T07:42:22.900Z,2.35
2023-06-03T07:44:50.370Z,1.52
2023-06-03T07:47:19.539Z,1.60
2023-06-03T07:49:50.382Z,1.83
2023-06-03T07:52:22.095Z,1.75
2023-06-03T07:54:49.760Z,1.70
2023-06-03T07:57:17.367Z,1.77
2023-06-03T07:59:56.699Z,1.60
2023-06-03T08:02:23.619Z,1.77
2023-06-03T08:04:53.445Z,1.65
2023-06-03T08:07:20.870Z,1.75
2023-06-03T08:09:50.234Z,1.88
2023-06-03T08:12:24.946Z,1.90
2023-06-03T08:14:51.879Z,1.60
2023-06-03T08:17:26.221Z,2.42
2023-06-03T08:19:53.229Z,1.88
2023-06-03T08:22:52.510Z,2.22
2023-06-03T08:25:22.108Z,1.70
2023-06-03T08:27:49.675Z,1.75
2023-06-03T08:30:17.789Z,1.50
2023-06-03T08:32:46.714Z,1.52
2023-06-03T08:35:17.152Z,1.80
2023-06-03T08:37:47.275Z,1.95
2023-06-03T08:40:15.796Z,1.60
2023-06-03T08:42:48.330Z,2.30
2023-06-03T08:45:19.668Z,2.15
2023-06-03T08:48:13.431Z,1.73
2023-06-03T08:50:46.548Z,1.85
2023-06-03T08:53:13.891Z,2.40
2023-06-03T08:55:41.988Z,2.33
2023-06-03T08:58:34.585Z,2.38
2023-06-03T09:01:05.768Z,1.75
2023-06-03T09:03:33.650Z,1.80
2023-06-03T09:06:02.236Z,1.80
2023-06-03T09:08:29.588Z,1.73
2023-06-03T09:10:58.108Z,1.80
2023-06-03T09:13:27.738Z,1.77
2023-06-03T09:15:56.470Z,1.83
2023-06-03T09:18:23.937Z,2.08
2023-06-03T09:20:50.637Z,2.08
2023-06-03T09:23:17.777Z,1.90
2023-06-03T09:25:44.938Z,1.92
2023-06-03T09:28:12.000Z,9.57
2023-06-03T09:30:40.500Z,2.05
2023-06-03T09:33:08.263Z,2.00
2023-06-03T09:35:35.265Z,2.33
2023-06-03T09:38:06.079Z,1.92
2023-06-03T09:40:33.869Z,2.33
2023-06-03T09:43:01.124Z,2.35
2023-06-03T09:45:32.229Z,1.98
2023-06-03T09:48:03.488Z,2.33
2023-06-03T09:50:32.292Z,2.45
2023-06-03T09:53:00.122Z,2.33
2023-06-03T09:55:33.767Z,2.10
2023-06-03T09:58:07.083Z,2.20
2023-06-03T10:00:47.600Z,2.15
2023-06-03T10:03:15.870Z,2.40
2023-06-03T10:05:42.865Z,2.50
2023-06-03T10:08:09.589Z,2.47
2023-06-03T10:10:36.391Z,2.40
2023-06-03T10:13:19.805Z,2.30
2023-06-03T10:15:46.855Z,2.58
2023-06-03T10:18:13.608Z,2.20
2023-06-03T10:20:42.506Z,2.70
2023-06-03T10:23:11.194Z,2.63
2023-06-03T10:25:46.516Z,2.35
2023-06-03T10:28:15.013Z,2.42
2023-06-03T10:30:42.282Z,2.47
2023-06-03T10:33:10.229Z,2.40
2023-06-03T10:35:38.219Z,2.25
2023-06-03T10:38:07.161Z,2.20
2023-06-03T10:40:34.365Z,2.50
2023-06-03T10:43:01.019Z,2.75
2023-06-03T10:45:28.908Z,2.17
2023-06-03T10:48:13.915Z,2.35
2023-06-03T10:50:49.537Z,2.30
2023-06-03T10:53:47.408Z,2.67
2023-06-03T10:56:36.454Z,2.35
2023-06-03T10:59:05.804Z,2.20
2023-06-03T11:02:05.100Z,2.15
2023-06-03T11:04:34.638Z,2.35
2023-06-03T11:07:01.857Z,2.30
2023-06-03T11:09:31.127Z,2.38
2023-06-03T11:12:05.388Z,2.90
2023-06-03T11:14:32.907Z,2.60
2023-06-03T11:17:00.041Z,2.40
2023-06-03T11:19:47.290Z,2.67
2023-06-03T11:22:35.991Z,2.65
2023-06-03T11:25:02.838Z,2.85
2023-06-03T11:27:31.030Z,2.03
2023-06-03T11:30:00.644Z,2.40
2023-06-03T11:32:28.527Z,2.38
2023-06-03T11:35:04.992Z,2.70
2023-06-03T11:37:38.109Z,2.40
2023-06-03T11:40:23.907Z,8.43
2023-06-03T11:45:19.786Z,3.30
2023-06-03T11:48:04.711Z,2.40
2023-06-03T11:50:34.445Z,1.98
2023-06-03T11:53:02.200Z,2.55
2023-06-03T11:55:30.839Z,2.15
2023-06-03T11:58:09.629Z,2.53
2023-06-03T12:00:36.569Z,2.30
2023-06-03T12:03:03.540Z,2.60
2023-06-03T12:05:30.364Z,2.58
2023-06-03T12:07:59.090Z,2.20
2023-06-03T12:10:26.156Z,2.40
2023-06-03T12:12:53.737Z,1.88
2023-06-03T12:15:21.588Z,2.00
2023-06-03T12:17:48.962Z,2.53
2023-06-03T12:20:29.778Z,2.47
2023-06-03T12:23:00.762Z,2.08
2023-06-03T12:25:28.664Z,2.30
2023-06-03T12:27:56.177Z,2.10
2023-06-03T12:30:34.641Z,2.40
2023-06-03T12:35:30.096Z,2.38
2023-06-03T12:38:06.565Z,2.25
2023-06-03T12:40:34.154Z,2.22
2023-06-03T12:43:02.447Z,3.08
2023-06-03T12:45:29.373Z,2.40
2023-06-03T12:47:57.199Z,2.55
2023-06-03T12:50:32.070Z,2.45
2023-06-03T12:53:14.446Z,2.40
2023-06-03T12:55:41.825Z,2.20
2023-06-03T12:58:08.562Z,2.28
2023-06-03T13:00:35.236Z,2.40
2023-06-03T13:03:02.219Z,2.40
2023-06-03T13:05:29.014Z,4.68
2023-06-03T13:07:55.948Z,2.20
2023-06-03T13:10:22.597Z,2.50
2023-06-03T13:12:49.658Z,2.10
2023-06-03T13:15:18.094Z,2.45
2023-06-03T13:17:45.026Z,2.40
2023-06-03T13:20:12.418Z,2.63
2023-06-03T13:22:41.324Z,2.45
2023-06-03T13:25:08.954Z,2.15
2023-06-03T13:27:35.791Z,2.60
2023-06-03T13:30:02.613Z,2.45
2023-06-03T13:32:29.773Z,2.40
2023-06-03T13:34:57.109Z,2.30
2023-06-03T13:37:23.841Z,2.42
2023-06-03T13:39:50.442Z,2.47
2023-06-03T13:42:17.608Z,2.58
2023-06-03T13:44:44.476Z,2.40
2023-06-03T13:47:11.368Z,2.53
2023-06-03T13:49:38.034Z,2.40
2023-06-03T13:52:06.142Z,2.90
2023-06-03T13:54:33.108Z,2.47
2023-06-03T13:56:59.808Z,2.55
2023-06-03T13:59:26.469Z,2.40
2023-06-03T14:01:54.171Z,2.53
2023-06-03T14:04:24.019Z,2.25
2023-06-03T14:06:52.446Z,2.33
2023-06-03T14:09:19.037Z,2.40
2023-06-03T14:11:46.889Z,2.45
2023-06-03T14:14:13.734Z,2.25
2023-06-03T14:16:41.439Z,1.98
2023-06-03T14:19:08.364Z,1.77
2023-06-03T14:21:35.014Z,2.63
2023-06-03T14:24:01.936Z,2.50
2023-06-03T14:26:28.637Z,2.55
2023-06-03T14:28:55.209Z,2.20
2023-06-03T14:33:51.738Z,2.05
2023-06-03T14:36:18.346Z,2.72
2023-06-03T14:38:44.904Z,2.70
2023-06-03T14:41:11.646Z,2.63
2023-06-03T14:43:38.357Z,2.47
2023-06-03T14:46:05.544Z,2.10
2023-06-03T14:48:32.231Z,2.30
2023-06-03T14:50:58.860Z,2.30
2023-06-03T14:53:26.972Z,2.30
2023-06-03T14:55:53.564Z,2.80
2023-06-03T14:58:21.559Z,2.30
2023-06-03T15:00:48.160Z,2.60
2023-06-03T15:03:14.869Z,2.30
2023-06-03T15:05:41.516Z,1.90
2023-06-03T15:08:08.676Z,2.00
2023-06-03T15:10:35.827Z,2.20
2023-06-03T15:13:02.718Z,2.17
2023-06-03T15:15:29.413Z,2.33
2023-06-03T15:17:56.080Z,2.30
2023-06-03T15:20:23.003Z,2.00
2023-06-03T15:22:49.744Z,2.10
2023-06-03T15:25:16.343Z,2.25
2023-06-03T15:27:42.926Z,2.20
2023-06-03T15:30:09.983Z,2.15
2023-06-03T15:32:37.868Z,1.85
2023-06-03T15:35:05.480Z,2.13
2023-06-03T15:37:32.190Z,2.00
2023-06-03T15:39:59.336Z,2.10
2023-06-03T15:42:26.247Z,2.25
2023-06-03T15:44:52.874Z,2.38
2023-06-03T15:47:19.540Z,2.47
2023-06-03T15:49:46.182Z,2.10
2023-06-03T15:52:12.758Z,1.88
2023-06-03T15:54:39.343Z,2.05
2023-06-03T15:57:07.252Z,1.92
2023-06-03T15:59:34.017Z,2.33
2023-06-03T16:02:00.890Z,2.10
2023-06-03T16:04:29.191Z,1.88
2023-06-03T16:06:56.038Z,2.25
2023-06-03T16:09:22.674Z,2.28
2023-06-03T16:11:49.308Z,2.17
2023-06-03T16:14:16.085Z,2.20
2023-06-03T16:16:42.685Z,2.33
2023-06-03T16:19:09.331Z,2.58
2023-06-03T16:21:37.143Z,2.22
2023-06-03T16:24:04.247Z,2.25
2023-06-03T16:26:31.021Z,1.90
2023-06-03T16:28:57.597Z,2.10
2023-06-03T16:31:24.869Z,2.00
2023-06-03T16:33:54.074Z,2.25
2023-06-03T16:36:20.777Z,1.92
2023-06-03T16:38:47.433Z,1.77
2023-06-03T16:41:14.176Z,1.90
2023-06-03T16:43:40.816Z,1.80
2023-06-03T16:46:07.549Z,1.92
2023-06-03T16:48:34.206Z,1.60
2023-06-03T16:51:01.017Z,1.73
2023-06-03T16:53:27.671Z,1.75
2023-06-03T16:55:54.226Z,1.50
2023-06-03T16:58:20.776Z,1.50
2023-06-03T17:00:47.438Z,1.52
2023-06-03T17:03:14.092Z,2.00
2023-06-03T17:05:41.367Z,1.70
2023-06-03T17:08:07.942Z,1.55
2023-06-03T17:10:36.195Z,1.77
2023-06-03T17:13:02.722Z,1.45
2023-06-03T17:15:29.273Z,1.63
2023-06-03T17:17:55.916Z,1.52
2023-06-03T17:20:22.615Z,1.48
2023-06-03T17:22:49.278Z,1.60
2023-06-03T17:25:15.827Z,1.60
2023-06-03T17:27:42.589Z,1.80
2023-06-03T17:30:09.487Z,1.70
2023-06-03T17:32:36.282Z,1.48
2023-06-03T17:35:02.964Z,1.45
2023-06-03T17:37:29.499Z,1.70
2023-06-03T17:39:56.054Z,1.38
2023-06-03T17:42:22.633Z,1.85
2023-06-03T17:44:50.856Z,1.42
2023-06-03T17:47:17.552Z,1.70
2023-06-03T17:49:50.725Z,1.40
2023-06-03T17:52:17.363Z,1.05
2023-06-03T17:54:43.903Z,1.40
2023-06-03T17:57:11.420Z,1.85
2023-06-03T17:59:38.020Z,1.40
2023-06-03T18:02:05.030Z,1.35
2023-06-03T18:04:31.754Z,1.40
2023-06-03T18:06:58.368Z,1.60
2023-06-03T18:09:25.083Z,1.50
2023-06-03T18:11:51.746Z,1.60
2023-06-03T18:14:18.309Z,1.48
2023-06-03T18:16:44.882Z,1.40
2023-06-03T18:19:11.538Z,1.70
2023-06-03T18:21:41.512Z,1.40
2023-06-03T18:24:08.127Z,1.73
2023-06-03T18:26:34.783Z,1.30
2023-06-03T18:29:01.617Z,1.60
2023-06-03T18:31:28.226Z,1.42
2023-06-03T18:33:54.817Z,1.35
2023-06-03T18:36:21.464Z,1.17
2023-06-03T18:38:48.023Z,1.42
2023-06-03T18:41:14.670Z,1.30
2023-06-03T18:43:42.673Z,1.35
2023-06-03T18:46:09.598Z,1.35
2023-06-03T18:48:36.254Z,1.30
2023-06-03T18:51:02.831Z,1.20
2023-06-03T18:53:29.414Z,1.13
2023-06-03T18:55:56.060Z,1.10
2023-06-03T18:58:22.627Z,1.20
2023-06-03T19:00:51.796Z,1.63
2023-06-03T19:03:27.484Z,1.42
2023-06-03T19:05:55.612Z,1.30
2023-06-03T19:08:23.287Z,1.20
2023-06-03T19:10:50.466Z,1.50
2023-06-03T19:13:18.124Z,1.10
2023-06-03T19:15:45.473Z,1.45
2023-06-03T19:18:13.668Z,1.35
2023-06-03T19:20:40.522Z,1.42
2023-06-03T19:23:07.397Z,1.30
2023-06-03T19:25:35.132Z,1.20
2023-06-03T19:28:01.731Z,1.40
2023-06-03T19:30:28.353Z,1.15
2023-06-03T19:32:55.409Z,1.30
2023-06-03T19:35:22.283Z,1.55
2023-06-03T19:37:48.851Z,1.30
2023-06-03T19:40:15.583Z,1.52
2023-06-03T19:42:42.112Z,1.23
2023-06-03T19:45:09.011Z,1.30
2023-06-03T19:47:35.672Z,1.30
2023-06-03T19:50:02.432Z,1.23
2023-06-03T19:52:29.755Z,1.20
2023-06-03T19:54:57.255Z,1.30
2023-06-03T19:57:23.809Z,1.38
2023-06-03T19:59:50.480Z,1.55
2023-06-03T20:02:17.126Z,1.52
2023-06-03T20:04:43.792Z,1.30
2023-06-03T20:07:11.933Z,4.07
2023-06-03T20:09:38.527Z,7.05
2023-06-03T20:12:05.281Z,4.88
2023-06-03T20:14:31.823Z,6.82
2023-06-03T20:16:58.517Z,5.03
2023-06-03T20:19:25.765Z,3.40
2023-06-03T20:21:52.311Z,2.35
2023-06-03T20:24:18.867Z,1.52
2023-06-03T20:26:46.528Z,1.70
2023-06-03T20:29:13.298Z,1.67
2023-06-03T20:31:40.040Z,1.77
2023-06-03T20:34:06.627Z,1.75
2023-06-03T20:36:33.894Z,1.85
2023-06-03T20:39:00.608Z,1.60
2023-06-03T20:41:28.266Z,2.15
2023-06-03T20:43:55.695Z,3.17
2023-06-03T20:46:22.464Z,4.15
2023-06-03T20:48:49.041Z,3.70
2023-06-03T20:51:15.619Z,3.53
2023-06-03T20:53:42.184Z,3.60
2023-06-03T20:56:08.723Z,5.63
2023-06-03T20:58:35.288Z,3.60
2023-06-03T21:01:01.837Z,2.47
2023-06-03T21:03:28.548Z,2.08
2023-06-03T21:05:55.614Z,1.30
2023-06-03T21:08:22.251Z,1.40
2023-06-03T21:10:48.838Z,1.40
2023-06-03T21:13:16.205Z,2.30
2023-06-03T21:15:42.759Z,2.20
2023-06-03T21:18:09.349Z,2.00
2023-06-03T21:20:36.010Z,1.98
2023-06-03T21:23:02.591Z,1.50
2023-06-03T21:25:29.347Z,2.45
2023-06-03T21:27:55.912Z,1.50
2023-06-03T21:30:22.859Z,1.50
2023-06-03T21:32:49.535Z,1.50
2023-06-03T21:35:16.212Z,1.45
2023-06-03T21:37:42.781Z,1.50
2023-06-03T21:40:10.556Z,1.50
2023-06-03T21:42:37.127Z,1.50
2023-06-03T21:45:04.006Z,1.60
2023-06-03T21:47:30.580Z,1.38
2023-06-03T21:49:57.196Z,1.60
2023-06-03T21:52:23.752Z,1.50
2023-06-03T21:54:50.564Z,1.40
2023-06-03T21:57:17.120Z,1.60
2023-06-03T21:59:43.684Z,1.83
2023-06-03T22:02:10.418Z,1.70
2023-06-03T22:04:37.234Z,1.73
2023-06-03T22:07:03.892Z,1.60
2023-06-03T22:09:30.495Z,1.35
2023-06-03T22:11:57.077Z,1.42
2023-06-03T22:14:23.694Z,1.30
2023-06-03T22:16:50.346Z,1.40
2023-06-03T22:19:16.999Z,1.67
2023-06-03T22:21:44.511Z,1.60
2023-06-03T22:24:11.248Z,1.70
2023-06-03T22:26:37.803Z,1.52
2023-06-03T22:31:30.899Z,1.70
2023-06-03T22:33:57.518Z,1.70
2023-06-03T22:38:50.558Z,1.98
2023-06-03T22:43:44.296Z,1.85
2023-06-03T22:46:11.059Z,1.77
2023-06-03T22:48:37.669Z,1.50
2023-06-03T22:51:07.415Z,1.70
2023-06-03T22:53:34.346Z,1.73
2023-06-03T22:56:02.375Z,1.77
2023-06-03T22:58:28.948Z,1.70
2023-06-03T23:03:22.217Z,1.75
2023-06-03T23:05:48.987Z,1.52
2023-06-03T23:08:15.762Z,1.60
2023-06-03T23:10:42.411Z,1.60
2023-06-03T23:13:09.011Z,1.70
2023-06-03T23:22:56.455Z,1.77
2023-06-03T23:27:50.434Z,1.92
2023-06-03T23:30:17.240Z,1.60
2023-06-03T23:32:44.496Z,1.60
2023-06-03T23:35:11.896Z,1.85
2023-06-03T23:37:44.685Z,1.67
2023-06-03T23:40:12.395Z,1.52
2023-06-03T23:42:39.464Z,1.70
2023-06-03T23:45:06.740Z,1.38
2023-06-03T23:47:33.412Z,1.65
2023-06-03T23:50:01.879Z,1.50
2023-06-03T23:52:28.713Z,1.70
2023-06-03T23:54:56.553Z,1.65
2023-06-03T23:57:23.838Z,1.60
2023-06-03T23:59:50.602Z,1.80
